Time;durP1;ratioP1;P1;durP2;ratioP2;P2;SDS_P1;SDS_P2;PMS_P1;PMS_P2;Temp;Humidity;BMP_temperature;BMP_pressure;BME280_temperature;BME280_humidity;BME280_pressure;Samples;Min_cycle;Max_cycle;Signal;HPM_P1;HPM_P2
2022/04/13 00:02:05;;;;;;;6.38;2.38;;;;;;;;;;5029164;28;20041;-76
2022/04/13 00:04:31;;;;;;;4.40;2.35;;;;;;;;;;5028851;28;20029;-75
2022/04/13 00:06:57;;;;;;;2.90;1.80;;;;;;;;;;5027968;28;20395;-75
2022/04/13 00:09:23;;;;;;;3.88;1.73;;;;;;;;;;5028550;28;20030;-76
2022/04/13 00:11:48;;;;;;;5.32;1.65;;;;;;;;;;5028804;28;20029;-75
2022/04/13 00:14:14;;;;;;;3.40;1.80;;;;;;;;;;5026910;28;20017;-76
2022/04/13 00:16:39;;;;;;;3.60;1.77;;;;;;;;;;5028864;28;20030;-76
2022/04/13 00:19:05;;;;;;;3.65;2.00;;;;;;;;;;5028522;28;20474;-75
2022/04/13 00:21:30;;;;;;;2.92;2.00;;;;;;;;;;5028434;28;20056;-76
2022/04/13 00:23:58;;;;;;;4.25;2.00;;;;;;;;;;5028824;28;20037;-74
2022/04/13 00:26:24;;;;;;;4.30;1.98;;;;;;;;;;5028640;28;20033;-74
2022/04/13 00:28:49;;;;;;;4.93;2.05;;;;;;;;;;5028071;28;20414;-76
2022/04/13 00:31:14;;;;;;;6.55;2.40;;;;;;;;;;5028691;28;20030;-76
2022/04/13 00:33:40;;;;;;;3.13;1.95;;;;;;;;;;5029224;28;20033;-76
2022/04/13 00:36:05;;;;;;;5.57;2.08;;;;;;;;;;5028478;28;20040;-76
2022/04/13 00:38:31;;;;;;;3.92;1.80;;;;;;;;;;5030555;28;20029;-76
2022/04/13 00:40:56;;;;;;;3.83;2.17;;;;;;;;;;5031596;28;20471;-76
2022/04/13 00:43:21;;;;;;;6.13;2.00;;;;;;;;;;5032500;28;20025;-76
2022/04/13 00:45:47;;;;;;;4.10;2.30;;;;;;;;;;5032127;28;20033;-76
2022/04/13 00:48:27;;;;;;;3.10;1.80;;;;;;;;;;5023961;28;20500;-75
2022/04/13 00:50:52;;;;;;;3.55;1.83;;;;;;;;;;5029537;28;20029;-76
2022/04/13 00:53:19;;;;;;;5.55;2.28;;;;;;;;;;5031200;28;20067;-76
2022/04/13 00:55:46;;;;;;;4.20;1.90;;;;;;;;;;5029207;28;20029;-74
2022/04/13 00:58:14;;;;;;;2.70;1.80;;;;;;;;;;5031815;28;20033;-75
2022/04/13 01:00:48;;;;;;;2.53;1.80;;;;;;;;;;5031778;28;20035;-75
2022/04/13 01:03:15;;;;;;;4.68;2.03;;;;;;;;;;5032262;28;20035;-74
2022/04/13 01:05:42;;;;;;;5.00;2.15;;;;;;;;;;5032174;28;20363;-76
2022/04/13 01:08:08;;;;;;;2.67;1.90;;;;;;;;;;5031616;28;20029;-76
2022/04/13 01:10:34;;;;;;;3.15;2.05;;;;;;;;;;5029874;28;20032;-74
2022/04/13 01:12:59;;;;;;;3.58;2.20;;;;;;;;;;5031996;28;20037;-76
2022/04/13 01:15:24;;;;;;;19.92;5.65;;;;;;;;;;5032893;28;20080;-76
2022/04/13 01:17:50;;;;;;;5.18;2.40;;;;;;;;;;5030577;28;20026;-75
2022/04/13 01:20:16;;;;;;;4.75;2.50;;;;;;;;;;5031556;28;20028;-76
2022/04/13 01:22:44;;;;;;;4.30;2.25;;;;;;;;;;5031370;28;20437;-75
2022/04/13 01:25:10;;;;;;;4.97;2.28;;;;;;;;;;5027974;28;20078;-74
2022/04/13 01:27:35;;;;;;;3.40;2.08;;;;;;;;;;5031866;28;20475;-76
2022/04/13 01:30:00;;;;;;;4.07;2.20;;;;;;;;;;5031106;28;20029;-75
2022/04/13 01:32:26;;;;;;;4.40;2.50;;;;;;;;;;5031254;28;20111;-76
2022/04/13 01:34:53;;;;;;;4.32;2.08;;;;;;;;;;5031510;28;20029;-74
2022/04/13 01:37:19;;;;;;;4.70;1.95;;;;;;;;;;5030078;28;20393;-75
2022/04/13 01:39:45;;;;;;;3.05;2.00;;;;;;;;;;5029740;28;20032;-73
2022/04/13 01:42:11;;;;;;;3.65;2.35;;;;;;;;;;5031340;28;20033;-74
2022/04/13 01:44:36;;;;;;;5.53;2.38;;;;;;;;;;5031969;28;20104;-75
2022/04/13 01:47:02;;;;;;;5.00;2.10;;;;;;;;;;5031326;28;20034;-75
2022/04/13 01:49:27;;;;;;;3.70;2.47;;;;;;;;;;5028930;28;20029;-75
2022/04/13 01:51:52;;;;;;;4.43;2.13;;;;;;;;;;5031157;28;20037;-76
2022/04/13 01:54:18;;;;;;;5.97;2.60;;;;;;;;;;5030159;28;20079;-76
2022/04/13 01:56:43;;;;;;;5.25;1.92;;;;;;;;;;5030698;28;20383;-75
2022/04/13 01:59:09;;;;;;;5.18;2.38;;;;;;;;;;5030972;28;20029;-76
2022/04/13 02:01:42;;;;;;;3.75;2.38;;;;;;;;;;5031096;28;20480;-75
2022/04/13 02:04:19;;;;;;;6.32;2.60;;;;;;;;;;5030219;28;20033;-75
2022/04/13 02:06:44;;;;;;;3.97;2.40;;;;;;;;;;5031294;28;20040;-76
2022/04/13 02:09:10;;;;;;;3.03;2.42;;;;;;;;;;5030617;28;20017;-75
2022/04/13 02:11:35;;;;;;;4.07;2.20;;;;;;;;;;5028858;28;20470;-75
2022/04/13 02:14:00;;;;;;;4.03;1.88;;;;;;;;;;5031382;28;20026;-75
2022/04/13 02:16:26;;;;;;;5.40;2.42;;;;;;;;;;5029601;28;20030;-75
2022/04/13 02:18:51;;;;;;;3.55;2.30;;;;;;;;;;5029728;28;20498;-76
2022/04/13 02:21:16;;;;;;;5.00;2.40;;;;;;;;;;5030663;28;20100;-76
2022/04/13 02:23:42;;;;;;;4.57;2.60;;;;;;;;;;5030226;28;20037;-76
2022/04/13 02:26:07;;;;;;;6.55;2.25;;;;;;;;;;5030419;28;20035;-75
2022/04/13 02:28:33;;;;;;;2.92;2.10;;;;;;;;;;5028534;28;20410;-75
2022/04/13 02:30:58;;;;;;;3.78;2.05;;;;;;;;;;5030446;28;20026;-74
2022/04/13 02:33:24;;;;;;;7.07;2.30;;;;;;;;;;5030338;28;20112;-75
2022/04/13 02:35:49;;;;;;;5.32;2.28;;;;;;;;;;5056031;23;20065;-73
2022/04/13 02:38:16;;;;;;;4.22;2.33;;;;;;;;;;5050069;28;20048;-73
2022/04/13 02:40:42;;;;;;;4.15;2.50;;;;;;;;;;5049304;28;20021;-73
2022/04/13 02:43:08;;;;;;;4.43;2.33;;;;;;;;;;5050149;28;20696;-72
2022/04/13 02:45:34;;;;;;;3.83;2.53;;;;;;;;;;5050011;28;20029;-73
2022/04/13 02:48:00;;;;;;;4.43;2.88;;;;;;;;;;5048674;28;20021;-72
2022/04/13 02:50:25;;;;;;;4.45;2.72;;;;;;;;;;5050082;28;20035;-73
2022/04/13 02:52:52;;;;;;;7.13;3.22;;;;;;;;;;5052388;28;20054;-73
2022/04/13 02:55:18;;;;;;;3.90;3.03;;;;;;;;;;5048202;28;20025;-73
2022/04/13 02:57:43;;;;;;;4.90;2.35;;;;;;;;;;5048411;28;20036;-73
2022/04/13 03:00:09;;;;;;;4.15;3.03;;;;;;;;;;5049404;28;20025;-72
2022/04/13 03:02:34;;;;;;;4.35;2.45;;;;;;;;;;5049780;28;20558;-73
2022/04/13 03:04:59;;;;;;;5.78;2.72;;;;;;;;;;5049820;28;20024;-72
2022/04/13 03:07:28;;;;;;;5.32;2.40;;;;;;;;;;5050937;28;20486;-72
2022/04/13 03:09:53;;;;;;;3.05;2.00;;;;;;;;;;5049634;28;20036;-72
2022/04/13 03:12:18;;;;;;;3.40;2.30;;;;;;;;;;5049408;28;20025;-72
2022/04/13 03:14:44;;;;;;;3.75;2.30;;;;;;;;;;5048954;28;20482;-73
2022/04/13 03:17:09;;;;;;;4.53;2.33;;;;;;;;;;5049829;28;20044;-73
2022/04/13 03:19:34;;;;;;;4.10;2.40;;;;;;;;;;5048949;28;20038;-73
2022/04/13 03:21:59;;;;;;;4.55;2.60;;;;;;;;;;5048036;28;20029;-72
2022/04/13 03:24:25;;;;;;;5.88;2.38;;;;;;;;;;5049216;28;20055;-73
2022/04/13 03:26:51;;;;;;;4.72;2.67;;;;;;;;;;5049295;28;20451;-73
2022/04/13 03:29:17;;;;;;;5.20;3.05;;;;;;;;;;5049292;28;20632;-72
2022/04/13 03:31:42;;;;;;;3.83;3.10;;;;;;;;;;5048907;28;20029;-73
2022/04/13 03:34:08;;;;;;;5.88;2.97;;;;;;;;;;5048489;28;20513;-73
2022/04/13 03:36:33;;;;;;;8.27;3.95;;;;;;;;;;5049341;28;20057;-73
2022/04/13 03:38:58;;;;;;;9.77;5.20;;;;;;;;;;5049628;28;20356;-72
2022/04/13 03:41:24;;;;;;;8.73;3.53;;;;;;;;;;5049915;28;20123;-72
2022/04/13 03:43:49;;;;;;;7.72;3.58;;;;;;;;;;5050052;28;20052;-73
2022/04/13 03:46:14;;;;;;;5.45;3.40;;;;;;;;;;5049716;28;20029;-72
2022/04/13 03:48:40;;;;;;;4.70;2.97;;;;;;;;;;5049771;28;20028;-73
2022/04/13 03:51:05;;;;;;;4.90;3.47;;;;;;;;;;5049623;28;20382;-73
2022/04/13 03:53:30;;;;;;;4.72;2.90;;;;;;;;;;5049777;28;20506;-73
2022/04/13 03:55:56;;;;;;;6.38;2.95;;;;;;;;;;5049766;28;20200;-73
2022/04/13 03:58:21;;;;;;;6.20;2.60;;;;;;;;;;5049508;28;20502;-73
2022/04/13 04:00:46;;;;;;;4.18;2.45;;;;;;;;;;5049725;28;20025;-73
2022/04/13 04:03:12;;;;;;;5.13;2.47;;;;;;;;;;5049710;28;20025;-73
2022/04/13 04:05:37;;;;;;;8.02;2.78;;;;;;;;;;5050111;28;20085;-72
2022/04/13 04:08:03;;;;;;;3.65;2.78;;;;;;;;;;5049252;28;20021;-73
2022/04/13 04:10:29;;;;;;;4.95;2.40;;;;;;;;;;5049658;28;20048;-73
2022/04/13 04:12:55;;;;;;;6.80;2.65;;;;;;;;;;5063362;28;20385;-73
2022/04/13 04:15:20;;;;;;;3.95;2.75;;;;;;;;;;5053637;28;20496;-73
2022/04/13 04:17:46;;;;;;;29.10;20.17;;;;;;;;;;5052589;28;20024;-73
2022/04/13 04:20:11;;;;;;;23.80;14.68;;;;;;;;;;5052927;28;20126;-73
2022/04/13 04:22:37;;;;;;;14.50;9.70;;;;;;;;;;5053500;28;20029;-73
2022/04/13 04:25:07;;;;;;;16.83;11.35;;;;;;;;;;5053350;28;20052;-73
2022/04/13 04:27:33;;;;;;;21.17;11.05;;;;;;;;;;5053748;28;20100;-72
2022/04/13 04:29:58;;;;;;;17.08;10.57;;;;;;;;;;5053227;28;20122;-72
2022/04/13 04:32:24;;;;;;;36.92;17.75;;;;;;;;;;5053758;28;20389;-72
2022/04/13 04:34:49;;;;;;;34.72;19.33;;;;;;;;;;5052637;28;20039;-73
2022/04/13 04:37:15;;;;;;;13.32;8.80;;;;;;;;;;5052099;28;20024;-74
2022/04/13 04:39:40;;;;;;;9.95;6.38;;;;;;;;;;5052937;28;20029;-73
2022/04/13 04:42:06;;;;;;;5.75;4.22;;;;;;;;;;5052581;28;20060;-73
2022/04/13 04:44:31;;;;;;;4.38;2.90;;;;;;;;;;5054307;28;20024;-73
2022/04/13 04:46:57;;;;;;;5.50;2.80;;;;;;;;;;5051579;28;20064;-73
2022/04/13 04:49:22;;;;;;;3.85;2.78;;;;;;;;;;5060278;28;20071;-72
2022/04/13 04:51:47;;;;;;;4.68;3.05;;;;;;;;;;5052055;28;20025;-73
2022/04/13 04:54:13;;;;;;;4.65;2.92;;;;;;;;;;5050857;28;20385;-73
2022/04/13 04:56:38;;;;;;;4.85;2.95;;;;;;;;;;5051125;28;20039;-73
2022/04/13 04:59:04;;;;;;;5.10;3.10;;;;;;;;;;5051152;28;20031;-72
2022/04/13 05:01:29;;;;;;;4.18;2.80;;;;;;;;;;5055039;28;20029;-73
2022/04/13 05:03:55;;;;;;;6.05;3.17;;;;;;;;;;5052516;28;20025;-73
2022/04/13 05:06:23;;;;;;;5.13;3.05;;;;;;;;;;5052046;28;20024;-73
2022/04/13 05:08:49;;;;;;;18.38;11.63;;;;;;;;;;5052437;28;20021;-73
2022/04/13 05:11:15;;;;;;;24.88;15.95;;;;;;;;;;5051962;28;20025;-73
2022/04/13 05:13:40;;;;;;;18.45;12.10;;;;;;;;;;5045071;28;20021;-73
2022/04/13 05:16:06;;;;;;;14.15;9.43;;;;;;;;;;5051306;28;20043;-72
2022/04/13 05:18:32;;;;;;;13.27;11.45;;;;;;;;;;5052339;28;20490;-72
2022/04/13 05:20:57;;;;;;;10.15;7.57;;;;;;;;;;5052077;28;20154;-72
2022/04/13 05:23:22;;;;;;;7.65;4.65;;;;;;;;;;5052242;28;20047;-72
2022/04/13 05:25:48;;;;;;;7.03;3.72;;;;;;;;;;5052292;28;20056;-72
2022/04/13 05:28:13;;;;;;;5.15;3.30;;;;;;;;;;5051747;28;20025;-72
2022/04/13 05:30:39;;;;;;;4.63;3.22;;;;;;;;;;5052116;28;20122;-72
2022/04/13 05:33:05;;;;;;;6.97;2.95;;;;;;;;;;5052012;28;20394;-72
2022/04/13 05:35:32;;;;;;;7.32;3.88;;;;;;;;;;5052399;28;20025;-73
2022/04/13 05:37:57;;;;;;;5.82;3.50;;;;;;;;;;5051458;28;20135;-72
2022/04/13 05:40:24;;;;;;;5.32;3.58;;;;;;;;;;5052262;28;20620;-72
2022/04/13 05:42:50;;;;;;;5.25;3.20;;;;;;;;;;5054041;28;20052;-73
2022/04/13 05:45:16;;;;;;;7.20;4.30;;;;;;;;;;5057811;28;20059;-72
2022/04/13 05:47:42;;;;;;;7.00;3.63;;;;;;;;;;5039154;28;20081;-72
2022/04/13 05:50:08;;;;;;;6.18;3.67;;;;;;;;;;5071391;28;20478;-73
2022/04/13 05:52:34;;;;;;;4.20;3.08;;;;;;;;;;5066430;28;20021;-72
2022/04/13 05:54:59;;;;;;;5.75;3.55;;;;;;;;;;5050553;28;20028;-71
2022/04/13 05:57:24;;;;;;;7.15;3.20;;;;;;;;;;5050939;28;20379;-71
2022/04/13 05:59:50;;;;;;;9.05;6.65;;;;;;;;;;5051522;28;20025;-72
2022/04/13 06:02:15;;;;;;;7.30;3.97;;;;;;;;;;5051378;28;20033;-71
2022/04/13 06:04:41;;;;;;;6.53;3.50;;;;;;;;;;5051695;28;20390;-75
2022/04/13 06:07:06;;;;;;;6.55;3.30;;;;;;;;;;5051225;28;20470;-75
2022/04/13 06:09:31;;;;;;;9.85;4.25;;;;;;;;;;5046944;28;20025;-72
2022/04/13 06:11:57;;;;;;;5.07;3.40;;;;;;;;;;5050042;28;20449;-72
2022/04/13 06:14:22;;;;;;;6.47;3.60;;;;;;;;;;5054595;28;20097;-73
2022/04/13 06:16:47;;;;;;;5.57;3.58;;;;;;;;;;5051112;28;20024;-72
2022/04/13 06:19:13;;;;;;;5.47;3.38;;;;;;;;;;5050622;28;20048;-73
2022/04/13 06:21:38;;;;;;;8.80;3.90;;;;;;;;;;5060319;28;20186;-73
2022/04/13 06:24:03;;;;;;;7.50;3.50;;;;;;;;;;5071088;28;20028;-73
2022/04/13 06:26:29;;;;;;;5.95;3.30;;;;;;;;;;5070613;28;20024;-73
2022/04/13 06:28:55;;;;;;;17.15;9.60;;;;;;;;;;5052801;28;20101;-73
2022/04/13 06:31:21;;;;;;;16.67;10.25;;;;;;;;;;5070468;28;20445;-73
2022/04/13 06:33:46;;;;;;;11.05;6.40;;;;;;;;;;5064292;28;20029;-74
2022/04/13 06:36:11;;;;;;;8.77;4.82;;;;;;;;;;5053154;28;20033;-74
2022/04/13 06:38:40;;;;;;;5.85;3.67;;;;;;;;;;5038253;28;20025;-74
2022/04/13 06:41:09;;;;;;;6.10;3.03;;;;;;;;;;5034560;28;20230;-74
2022/04/13 06:43:34;;;;;;;8.45;3.10;;;;;;;;;;5058294;28;20040;-73
2022/04/13 06:46:00;;;;;;;8.77;3.72;;;;;;;;;;5046787;28;20032;-75
2022/04/13 06:48:25;;;;;;;9.95;4.72;;;;;;;;;;5045348;28;20103;-74
2022/04/13 06:50:51;;;;;;;10.00;4.97;;;;;;;;;;5046691;28;20039;-73
2022/04/13 06:53:17;;;;;;;10.57;4.40;;;;;;;;;;5048890;28;20481;-73
2022/04/13 06:55:43;;;;;;;9.45;4.10;;;;;;;;;;5051651;28;20056;-73
2022/04/13 06:58:09;;;;;;;8.05;3.97;;;;;;;;;;5050368;28;20024;-74
2022/04/13 07:00:34;;;;;;;7.97;4.10;;;;;;;;;;5030759;28;20075;-74
2022/04/13 07:02:59;;;;;;;7.38;3.70;;;;;;;;;;5030288;28;20383;-73
2022/04/13 07:05:25;;;;;;;14.07;6.25;;;;;;;;;;5050484;28;20544;-75
2022/04/13 07:07:51;;;;;;;8.95;5.20;;;;;;;;;;5050002;28;20032;-73
2022/04/13 07:10:16;;;;;;;13.38;5.90;;;;;;;;;;5056663;28;20024;-73
2022/04/13 07:12:42;;;;;;;14.80;5.93;;;;;;;;;;5050916;28;20028;-74
2022/04/13 07:15:08;;;;;;;11.32;5.15;;;;;;;;;;5051031;28;20029;-73
2022/04/13 07:17:34;;;;;;;9.82;4.15;;;;;;;;;;5060657;28;20111;-73
2022/04/13 07:19:59;;;;;;;8.02;3.88;;;;;;;;;;5066488;28;20055;-74
2022/04/13 07:22:24;;;;;;;7.50;3.88;;;;;;;;;;5040007;28;20448;-73
2022/04/13 07:24:51;;;;;;;8.52;4.47;;;;;;;;;;5037694;28;20549;-73
2022/04/13 07:27:16;;;;;;;7.25;4.18;;;;;;;;;;5059546;28;20028;-75
2022/04/13 07:29:41;;;;;;;7.90;4.00;;;;;;;;;;5044353;28;20028;-76
2022/04/13 07:32:07;;;;;;;8.52;3.40;;;;;;;;;;5070004;28;20024;-76
2022/04/13 07:34:33;;;;;;;7.15;3.58;;;;;;;;;;5067965;28;20021;-75
2022/04/13 07:36:58;;;;;;;4.95;2.80;;;;;;;;;;5063151;28;20021;-75
2022/04/13 07:39:24;;;;;;;6.65;2.88;;;;;;;;;;5050534;28;20031;-76
2022/04/13 07:41:49;;;;;;;3.20;2.13;;;;;;;;;;5056496;28;20142;-76
2022/04/13 07:44:15;;;;;;;3.53;2.40;;;;;;;;;;5055413;28;20040;-75
2022/04/13 07:46:40;;;;;;;6.03;2.22;;;;;;;;;;5064427;28;20559;-76
2022/04/13 07:49:06;;;;;;;5.40;2.45;;;;;;;;;;5049083;28;20486;-76
2022/04/13 07:51:33;;;;;;;6.35;2.30;;;;;;;;;;5067208;28;20071;-75
2022/04/13 07:54:02;;;;;;;5.05;2.40;;;;;;;;;;5059865;28;20386;-75
2022/04/13 07:56:28;;;;;;;3.92;2.10;;;;;;;;;;5056602;28;20167;-75
2022/04/13 07:58:54;;;;;;;4.97;2.30;;;;;;;;;;5070530;28;20591;-76
2022/04/13 08:01:20;;;;;;;6.28;3.08;;;;;;;;;;5070183;28;20020;-74
2022/04/13 08:03:45;;;;;;;6.13;3.00;;;;;;;;;;5061545;28;20628;-72
2022/04/13 08:06:11;;;;;;;7.88;3.28;;;;;;;;;;5056719;28;20107;-74
2022/04/13 08:08:37;;;;;;;12.68;3.00;;;;;;;;;;5070068;28;20103;-75
2022/04/13 08:11:03;;;;;;;6.25;2.95;;;;;;;;;;5070189;28;20026;-74
2022/04/13 08:13:28;;;;;;;8.55;2.92;;;;;;;;;;5068980;28;20025;-73
2022/04/13 08:15:53;;;;;;;9.52;3.63;;;;;;;;;;5049574;28;20029;-73
2022/04/13 08:18:19;;;;;;;5.73;3.10;;;;;;;;;;5049785;28;20437;-74
2022/04/13 08:20:45;;;;;;;5.50;2.83;;;;;;;;;;5059932;28;20296;-72
2022/04/13 08:23:11;;;;;;;5.82;2.78;;;;;;;;;;5053491;28;20272;-73
2022/04/13 08:25:36;;;;;;;5.25;2.78;;;;;;;;;;5049593;28;20029;-74
2022/04/13 08:28:01;;;;;;;6.53;2.67;;;;;;;;;;5049477;28;20039;-72
2022/04/13 08:30:27;;;;;;;6.93;2.80;;;;;;;;;;5049347;28;20028;-72
2022/04/13 08:32:52;;;;;;;6.33;2.60;;;;;;;;;;5048737;28;20025;-75
2022/04/13 08:35:17;;;;;;;10.75;2.97;;;;;;;;;;5061660;28;20265;-73
2022/04/13 08:37:43;;;;;;;6.70;2.80;;;;;;;;;;5064840;28;20017;-72
2022/04/13 08:40:13;;;;;;;10.80;3.80;;;;;;;;;;5048793;28;20268;-72
2022/04/13 08:42:48;;;;;;;9.73;2.63;;;;;;;;;;5050500;28;20037;-74
2022/04/13 08:45:23;;;;;;;9.38;2.78;;;;;;;;;;5049260;28;20374;-75
2022/04/13 08:47:50;;;;;;;5.07;2.55;;;;;;;;;;5048923;28;20036;-75
2022/04/13 08:50:17;;;;;;;8.85;2.42;;;;;;;;;;5049011;28;20251;-74
2022/04/13 08:52:50;;;;;;;7.60;2.65;;;;;;;;;;5048547;28;20139;-75
2022/04/13 08:55:18;;;;;;;9.35;2.55;;;;;;;;;;5048882;28;20029;-74
2022/04/13 08:57:47;;;;;;;6.55;2.75;;;;;;;;;;5056558;28;20363;-75
2022/04/13 09:00:14;;;;;;;11.90;3.00;;;;;;;;;;5071864;28;20363;-74
2022/04/13 09:02:47;;;;;;;7.95;2.92;;;;;;;;;;5055535;28;21059;-75
2022/04/13 09:05:28;;;;;;;10.95;3.15;;;;;;;;;;5072441;28;20056;-74
2022/04/13 09:08:05;;;;;;;8.13;2.60;;;;;;;;;;5071988;28;20031;-75
2022/04/13 09:10:31;;;;;;;8.00;3.05;;;;;;;;;;5072330;28;20021;-75
2022/04/13 09:12:58;;;;;;;10.35;2.75;;;;;;;;;;5071711;28;20028;-74
2022/04/13 09:15:24;;;;;;;6.43;2.72;;;;;;;;;;5053553;28;20025;-74
2022/04/13 09:17:50;;;;;;;11.40;2.80;;;;;;;;;;5052275;28;20570;-74
2022/04/13 09:20:16;;;;;;;6.35;2.30;;;;;;;;;;5051313;28;20056;-74
2022/04/13 09:22:42;;;;;;;7.90;2.33;;;;;;;;;;5052677;28;20473;-74
2022/04/13 09:25:09;;;;;;;7.93;2.55;;;;;;;;;;5052783;28;20037;-74
2022/04/13 09:27:36;;;;;;;10.68;2.60;;;;;;;;;;5069577;28;20028;-74
2022/04/13 09:30:01;;;;;;;9.55;2.70;;;;;;;;;;5050187;28;20033;-73
2022/04/13 09:32:27;;;;;;;10.75;3.60;;;;;;;;;;5049431;28;20155;-73
2022/04/13 09:34:54;;;;;;;8.32;2.45;;;;;;;;;;5048027;28;20029;-74
2022/04/13 09:37:20;;;;;;;9.75;2.50;;;;;;;;;;5048066;28;20575;-73
2022/04/13 09:39:46;;;;;;;6.85;2.20;;;;;;;;;;5047995;28;20400;-73
2022/04/13 09:42:13;;;;;;;7.43;2.28;;;;;;;;;;5053527;28;20446;-73
2022/04/13 09:44:41;;;;;;;6.18;2.15;;;;;;;;;;5068204;28;20063;-73
2022/04/13 09:47:07;;;;;;;9.60;2.63;;;;;;;;;;5058748;28;20079;-73
2022/04/13 09:49:32;;;;;;;9.13;2.40;;;;;;;;;;5047814;28;20422;-73
2022/04/13 09:51:58;;;;;;;9.50;2.70;;;;;;;;;;5060834;28;20074;-73
2022/04/13 09:54:24;;;;;;;4.28;2.22;;;;;;;;;;5048975;28;20262;-73
2022/04/13 09:56:49;;;;;;;4.80;2.30;;;;;;;;;;5048665;28;20103;-74
2022/04/13 09:59:26;;;;;;;6.05;2.33;;;;;;;;;;5055903;28;20597;-72
2022/04/13 10:01:51;;;;;;;9.02;2.33;;;;;;;;;;5050589;28;20031;-72
2022/04/13 10:04:30;;;;;;;10.10;2.40;;;;;;;;;;5049409;28;20517;-74
2022/04/13 10:07:13;;;;;;;4.95;2.15;;;;;;;;;;5049254;28;20047;-74
2022/04/13 10:09:39;;;;;;;7.55;2.33;;;;;;;;;;5047711;28;20617;-73
2022/04/13 10:12:04;;;;;;;6.33;2.30;;;;;;;;;;5049376;28;20116;-73
2022/04/13 10:14:31;;;;;;;6.63;1.90;;;;;;;;;;5051586;28;20272;-74
2022/04/13 10:17:09;;;;;;;7.22;2.33;;;;;;;;;;5050786;28;20029;-74
2022/04/13 10:19:35;;;;;;;10.48;2.10;;;;;;;;;;5051061;28;20112;-74
2022/04/13 10:22:01;;;;;;;7.10;2.13;;;;;;;;;;5049791;28;20017;-74
2022/04/13 10:24:34;;;;;;;5.22;1.40;;;;;;;;;;5050855;28;20382;-74
2022/04/13 10:27:15;;;;;;;3.08;1.45;;;;;;;;;;5050562;28;20108;-75
2022/04/13 10:29:43;;;;;;;4.43;1.50;;;;;;;;;;5059403;28;20116;-73
2022/04/13 10:32:11;;;;;;;4.68;1.50;;;;;;;;;;5070437;28;20044;-74
2022/04/13 10:34:48;;;;;;;3.85;1.58;;;;;;;;;;5071447;28;20464;-74
2022/04/13 10:37:16;;;;;;;8.35;1.60;;;;;;;;;;5070926;28;20454;-74
2022/04/13 10:39:44;;;;;;;4.70;1.45;;;;;;;;;;5069163;28;20024;-73
2022/04/13 10:42:10;;;;;;;4.90;1.50;;;;;;;;;;5070631;28;20602;-74
2022/04/13 10:44:48;;;;;;;3.30;1.52;;;;;;;;;;5070559;28;20024;-74
2022/04/13 10:47:19;;;;;;;6.15;1.42;;;;;;;;;;5068965;28;20032;-74
2022/04/13 10:49:53;;;;;;;4.30;1.45;;;;;;;;;;5063443;28;20498;-73
2022/04/13 10:52:34;;;;;;;4.95;1.33;;;;;;;;;;5050354;28;20037;-74
2022/04/13 10:55:11;;;;;;;4.85;1.70;;;;;;;;;;5050843;28;20029;-74
2022/04/13 10:57:45;;;;;;;6.10;1.90;;;;;;;;;;5050269;28;20033;-74
2022/04/13 11:00:12;;;;;;;5.88;1.75;;;;;;;;;;5047860;28;20064;-73
2022/04/13 11:03:04;;;;;;;4.97;1.60;;;;;;;;;;5050022;28;20078;-74
2022/04/13 11:05:31;;;;;;;4.10;1.52;;;;;;;;;;5050958;28;20029;-73
2022/04/13 11:08:28;;;;;;;4.32;1.58;;;;;;;;;;5062021;28;20029;-74
2022/04/13 11:10:53;;;;;;;5.45;1.63;;;;;;;;;;5050050;28;20528;-73
2022/04/13 11:13:19;;;;;;;3.28;1.50;;;;;;;;;;5054127;28;20033;-73
2022/04/13 11:15:50;;;;;;;4.70;1.40;;;;;;;;;;5070258;28;20028;-73
2022/04/13 11:18:20;;;;;;;5.43;1.52;;;;;;;;;;5058755;28;20368;-73
2022/04/13 11:21:04;;;;;;;4.00;1.55;;;;;;;;;;5040029;28;20025;-73
2022/04/13 11:23:52;;;;;;;5.28;1.40;;;;;;;;;;5043817;28;20033;-74
2022/04/13 11:26:33;;;;;;;4.60;1.73;;;;;;;;;;5043000;28;20063;-74
2022/04/13 11:29:18;;;;;;;3.55;1.45;;;;;;;;;;5058208;28;20033;-73
2022/04/13 11:32:02;;;;;;;5.32;1.95;;;;;;;;;;5047410;28;20021;-74
2022/04/13 11:34:39;;;;;;;3.53;1.50;;;;;;;;;;5044884;28;20048;-73
2022/04/13 11:37:10;;;;;;;5.53;1.77;;;;;;;;;;5041390;28;20290;-74
2022/04/13 11:39:49;;;;;;;4.65;1.58;;;;;;;;;;5045898;28;20368;-74
2022/04/13 11:42:26;;;;;;;3.40;1.30;;;;;;;;;;5053815;28;20072;-74
2022/04/13 11:45:11;;;;;;;4.93;1.52;;;;;;;;;;5065354;28;20059;-73
2022/04/13 11:47:40;;;;;;;3.75;1.10;;;;;;;;;;5045571;28;20055;-73
2022/04/13 11:50:12;;;;;;;7.32;1.55;;;;;;;;;;5045231;28;20029;-73
2022/04/13 11:52:48;;;;;;;6.85;1.77;;;;;;;;;;5047004;28;20028;-75
2022/04/13 11:55:37;;;;;;;5.10;1.48;;;;;;;;;;5045859;28;20020;-73
2022/04/13 11:58:08;;;;;;;3.53;1.38;;;;;;;;;;5058419;28;20495;-74
2022/04/13 12:00:50;;;;;;;4.63;1.40;;;;;;;;;;5055408;28;20031;-73
2022/04/13 12:03:17;;;;;;;5.50;1.45;;;;;;;;;;5056249;28;20036;-74
2022/04/13 12:05:47;;;;;;;4.55;1.45;;;;;;;;;;5065755;28;20055;-73
2022/04/13 12:08:15;;;;;;;4.97;1.50;;;;;;;;;;5048781;28;20241;-73
2022/04/13 12:11:07;;;;;;;4.68;1.83;;;;;;;;;;5045873;28;20029;-73
2022/04/13 12:13:50;;;;;;;4.85;1.50;;;;;;;;;;5053140;28;20048;-72
2022/04/13 12:16:20;;;;;;;4.55;1.80;;;;;;;;;;5065699;28;20028;-73
2022/04/13 12:18:45;;;;;;;5.18;1.40;;;;;;;;;;5066349;28;20028;-73
2022/04/13 12:21:13;;;;;;;3.70;1.50;;;;;;;;;;5059121;28;20475;-74
2022/04/13 12:23:39;;;;;;;6.40;1.80;;;;;;;;;;5045912;28;20021;-75
2022/04/13 12:26:06;;;;;;;6.53;1.80;;;;;;;;;;5045250;28;20025;-74
2022/04/13 12:28:32;;;;;;;5.60;1.70;;;;;;;;;;5045193;28;20029;-73
2022/04/13 12:31:08;;;;;;;5.75;1.83;;;;;;;;;;5046240;28;20215;-73
2022/04/13 12:33:35;;;;;;;5.07;1.42;;;;;;;;;;5046802;28;20497;-73
2022/04/13 12:36:02;;;;;;;5.80;1.40;;;;;;;;;;5049255;28;20039;-74
2022/04/13 12:38:32;;;;;;;7.78;1.98;;;;;;;;;;5048568;28;20066;-73
2022/04/13 12:41:08;;;;;;;6.60;1.88;;;;;;;;;;5049759;28;20032;-74
2022/04/13 12:43:34;;;;;;;7.85;1.60;;;;;;;;;;5049836;28;20028;-72
2022/04/13 12:46:08;;;;;;;5.00;1.52;;;;;;;;;;5048701;28;20487;-72
2022/04/13 12:48:33;;;;;;;8.10;1.95;;;;;;;;;;5048075;28;20446;-73
2022/04/13 12:51:03;;;;;;;5.55;1.63;;;;;;;;;;5048811;28;20021;-73
2022/04/13 12:53:39;;;;;;;4.28;1.52;;;;;;;;;;5049378;28;20483;-73
2022/04/13 12:56:04;;;;;;;4.03;1.45;;;;;;;;;;5049343;28;20552;-73
2022/04/13 12:58:36;;;;;;;6.85;1.67;;;;;;;;;;5048176;28;20041;-74
2022/04/13 13:01:02;;;;;;;6.70;1.65;;;;;;;;;;5048542;28;20386;-74
2022/04/13 13:03:33;;;;;;;5.63;2.10;;;;;;;;;;5049075;28;20032;-73
2022/04/13 13:06:08;;;;;;;6.57;1.40;;;;;;;;;;5048061;28;20434;-74
2022/04/13 13:08:54;;;;;;;3.88;1.90;;;;;;;;;;5049317;28;20035;-73
2022/04/13 13:11:25;;;;;;;4.70;1.40;;;;;;;;;;5048732;28;20124;-73
2022/04/13 13:13:51;;;;;;;6.83;1.70;;;;;;;;;;5049034;28;20228;-74
2022/04/13 13:16:31;;;;;;;2.60;1.45;;;;;;;;;;5048624;28;20025;-73
2022/04/13 13:19:14;;;;;;;5.10;1.70;;;;;;;;;;5047859;28;20064;-76
2022/04/13 13:22:16;;;;;;;5.25;1.42;;;;;;;;;;5048123;28;20036;-73
2022/04/13 13:25:01;;;;;;;5.60;1.20;;;;;;;;;;5047019;28;20056;-73
2022/04/13 13:27:33;;;;;;;5.30;1.40;;;;;;;;;;5048447;28;20090;-73
2022/04/13 13:30:13;;;;;;;10.82;1.45;;;;;;;;;;5048294;28;20035;-76
2022/04/13 13:32:41;;;;;;;5.82;1.80;;;;;;;;;;5047591;28;20032;-74
2022/04/13 13:35:11;;;;;;;4.95;1.77;;;;;;;;;;5048318;28;20031;-73
2022/04/13 13:37:40;;;;;;;5.22;1.60;;;;;;;;;;5048829;28;20725;-73
2022/04/13 13:40:28;;;;;;;5.93;1.50;;;;;;;;;;5046676;28;20055;-75
2022/04/13 13:42:54;;;;;;;2.83;1.20;;;;;;;;;;5047432;28;20029;-73
2022/04/13 13:45:19;;;;;;;5.30;1.48;;;;;;;;;;5047288;28;20027;-73
2022/04/13 13:47:45;;;;;;;9.63;1.75;;;;;;;;;;5048303;28;20036;-73
2022/04/13 13:50:11;;;;;;;6.00;1.50;;;;;;;;;;5047413;28;20115;-75
2022/04/13 13:52:37;;;;;;;6.22;1.80;;;;;;;;;;5047743;28;20108;-73
2022/04/13 13:55:02;;;;;;;10.35;1.67;;;;;;;;;;5048489;28;20025;-73
2022/04/13 13:57:28;;;;;;;3.33;1.50;;;;;;;;;;5046775;28;20033;-73
2022/04/13 13:59:53;;;;;;;4.25;1.35;;;;;;;;;;5047444;28;20047;-73
2022/04/13 14:02:19;;;;;;;4.32;1.50;;;;;;;;;;5047956;28;20025;-74
2022/04/13 14:04:44;;;;;;;5.32;1.42;;;;;;;;;;5047300;28;20064;-73
2022/04/13 14:07:09;;;;;;;6.00;1.50;;;;;;;;;;5047837;28;20027;-74
2022/04/13 14:09:34;;;;;;;5.72;1.38;;;;;;;;;;5046776;28;20813;-73
2022/04/13 14:12:00;;;;;;;5.93;1.60;;;;;;;;;;5047502;28;20025;-73
2022/04/13 14:14:25;;;;;;;5.53;1.48;;;;;;;;;;5049984;28;20021;-73
2022/04/13 14:16:53;;;;;;;5.30;1.20;;;;;;;;;;5050690;28;20216;-73
2022/04/13 14:19:18;;;;;;;5.05;1.42;;;;;;;;;;5050279;28;20029;-73
2022/04/13 14:21:44;;;;;;;4.43;1.75;;;;;;;;;;5050026;28;20020;-72
2022/04/13 14:24:09;;;;;;;5.75;1.40;;;;;;;;;;5049658;28;20040;-72
2022/04/13 14:26:35;;;;;;;4.43;1.30;;;;;;;;;;5049027;28;20500;-73
2022/04/13 14:29:00;;;;;;;7.53;1.63;;;;;;;;;;5049977;28;20462;-73
2022/04/13 14:31:25;;;;;;;4.95;1.20;;;;;;;;;;5049740;28;20016;-73
2022/04/13 14:33:51;;;;;;;6.30;1.60;;;;;;;;;;5050070;28;20021;-72
2022/04/13 14:36:17;;;;;;;5.07;1.58;;;;;;;;;;5050503;28;20032;-74
2022/04/13 14:38:42;;;;;;;6.15;1.75;;;;;;;;;;5050681;28;20090;-72
2022/04/13 14:41:07;;;;;;;5.90;1.35;;;;;;;;;;5049160;28;20021;-72
2022/04/13 14:43:33;;;;;;;5.68;1.40;;;;;;;;;;5050694;28;20090;-74
2022/04/13 14:46:00;;;;;;;3.20;1.20;;;;;;;;;;5050737;28;20395;-72